createdAt,value
2019-06-08T00:01:22.872Z,18.60
2019-06-08T00:03:52.710Z,18.80
2019-06-08T00:06:22.999Z,18.80
2019-06-08T00:08:52.774Z,18.80
2019-06-08T00:11:23.469Z,18.90
2019-06-08T00:13:53.167Z,19.10
2019-06-08T00:16:23.839Z,19.10
2019-06-08T00:18:53.504Z,19.20
2019-06-08T00:21:24.280Z,19.10
2019-06-08T00:23:53.973Z,18.80
2019-06-08T00:26:24.391Z,18.80
2019-06-08T00:28:54.039Z,18.70
2019-06-08T00:31:23.635Z,18.60
2019-06-08T00:33:53.255Z,18.40
2019-06-08T00:36:23.070Z,18.40
2019-06-08T00:38:52.976Z,18.20
2019-06-08T00:43:53.295Z,17.80
2019-06-08T00:46:23.609Z,17.60
2019-06-08T00:48:53.432Z,17.50
2019-06-08T00:51:23.161Z,17.30
2019-06-08T00:53:52.878Z,17.30
2019-06-08T00:56:23.721Z,17.20
2019-06-08T00:58:53.418Z,17.20
2019-06-08T01:01:25.075Z,17.10
2019-06-08T01:03:54.338Z,17.10
2019-06-08T01:06:24.985Z,17.10
2019-06-08T01:08:54.656Z,17.00
2019-06-08T01:11:24.764Z,17.00
2019-06-08T01:13:54.508Z,16.90
2019-06-08T01:16:25.029Z,16.90
2019-06-08T01:18:54.680Z,16.80
2019-06-08T01:21:25.466Z,16.80
2019-06-08T01:23:55.221Z,16.80
2019-06-08T01:26:25.960Z,16.70
2019-06-08T01:28:57.211Z,16.70
2019-06-08T01:31:26.930Z,16.70
2019-06-08T01:33:56.459Z,16.70
2019-06-08T01:36:29.047Z,16.60
2019-06-08T01:39:00.282Z,16.60
2019-06-08T01:41:29.899Z,14.30
2019-06-08T01:44:18.829Z,16.60
2019-06-08T01:46:48.405Z,16.60
2019-06-08T01:49:18.008Z,16.50
2019-06-08T01:51:47.806Z,16.50
2019-06-08T01:54:17.335Z,16.40
2019-06-08T01:56:47.334Z,16.40
2019-06-08T01:59:16.853Z,16.50
2019-06-08T02:01:46.432Z,16.50
2019-06-08T02:04:16.059Z,16.40
2019-06-08T02:06:45.749Z,16.50
2019-06-08T02:09:15.399Z,16.50
2019-06-08T02:11:45.121Z,16.50
2019-06-08T02:14:14.776Z,16.50
2019-06-08T02:16:44.325Z,16.50
2019-06-08T02:19:13.841Z,16.40
2019-06-08T02:21:43.599Z,16.40
2019-06-08T02:24:13.385Z,16.40
2019-06-08T02:26:43.029Z,16.30
2019-06-08T02:29:12.616Z,16.30
2019-06-08T02:36:44.460Z,16.40
2019-06-08T02:39:14.130Z,16.50
2019-06-08T02:41:43.735Z,16.60
2019-06-08T02:44:13.366Z,16.60
2019-06-08T02:46:42.903Z,16.70
2019-06-08T02:49:12.500Z,16.70
2019-06-08T02:51:43.044Z,16.80
2019-06-08T02:54:13.193Z,16.90
2019-06-08T02:56:44.222Z,16.90
2019-06-08T02:59:15.440Z,16.90
2019-06-08T03:01:48.351Z,17.00
2019-06-08T03:04:19.678Z,17.10
2019-06-08T03:06:50.942Z,17.10
2019-06-08T03:09:23.530Z,17.00
2019-06-08T03:11:56.960Z,17.00
2019-06-08T03:14:33.178Z,17.00
2019-06-08T03:17:02.819Z,17.00
2019-06-08T03:19:33.300Z,17.00
2019-06-08T03:22:03.221Z,17.00
2019-06-08T03:24:34.369Z,17.00
2019-06-08T03:27:04.270Z,17.00
2019-06-08T03:29:34.984Z,17.10
2019-06-08T03:32:05.128Z,17.10
2019-06-08T03:34:56.702Z,17.10
2019-06-08T03:39:54.627Z,17.00
2019-06-08T03:42:24.297Z,17.00
2019-06-08T03:44:53.812Z,16.90
2019-06-08T03:47:23.456Z,16.90
2019-06-08T03:49:57.352Z,16.80
2019-06-08T03:54:53.643Z,16.90
2019-06-08T03:57:23.711Z,16.90
2019-06-08T03:59:53.229Z,16.90
2019-06-08T04:02:22.790Z,17.00
2019-06-08T04:04:52.381Z,17.00
2019-06-08T04:07:21.917Z,17.00
2019-06-08T04:09:51.506Z,17.00
2019-06-08T04:12:22.119Z,17.00
2019-06-08T04:14:51.630Z,17.00
2019-06-08T04:17:21.248Z,17.00
2019-06-08T04:20:09.786Z,17.10
2019-06-08T04:22:23.150Z,17.10
2019-06-08T04:24:52.675Z,17.10
2019-06-08T04:27:22.412Z,17.20
2019-06-08T04:29:51.927Z,17.20
2019-06-08T04:32:21.567Z,17.30
2019-06-08T04:34:51.092Z,17.20
2019-06-08T04:37:21.108Z,17.30
2019-06-08T04:39:50.996Z,17.40
2019-06-08T04:42:21.254Z,17.40
2019-06-08T04:44:51.800Z,17.40
2019-06-08T04:47:21.418Z,17.50
2019-06-08T04:49:51.621Z,17.60
2019-06-08T04:55:17.573Z,17.50
2019-06-08T04:57:48.673Z,17.60
2019-06-08T05:00:19.329Z,17.60
2019-06-08T05:02:51.118Z,17.60
2019-06-08T05:05:20.632Z,17.50
2019-06-08T05:07:50.514Z,17.40
2019-06-08T05:10:20.197Z,17.50
2019-06-08T05:12:50.390Z,17.40
2019-06-08T05:15:21.197Z,17.40
2019-06-08T05:17:50.830Z,17.30
2019-06-08T05:20:35.030Z,17.30
2019-06-08T05:22:51.711Z,17.30
2019-06-08T05:25:21.350Z,17.20
2019-06-08T05:27:52.071Z,17.20
2019-06-08T05:30:22.943Z,17.10
2019-06-08T05:32:52.563Z,17.20
2019-06-08T05:35:22.212Z,17.30
2019-06-08T05:37:51.756Z,17.40
2019-06-08T05:40:23.353Z,17.40
2019-06-08T05:45:22.110Z,17.50
2019-06-08T05:47:51.649Z,17.50
2019-06-08T05:50:21.302Z,17.60
2019-06-08T05:52:50.955Z,17.70
2019-06-08T05:55:20.645Z,17.70
2019-06-08T05:57:50.601Z,17.60
2019-06-08T06:00:20.756Z,17.60
2019-06-08T06:02:51.009Z,17.50
2019-06-08T06:05:21.006Z,17.50
2019-06-08T06:07:51.242Z,17.40
2019-06-08T06:10:21.202Z,17.40
2019-06-08T06:12:51.210Z,17.50
2019-06-08T06:15:21.272Z,17.50
2019-06-08T06:17:51.594Z,17.60
2019-06-08T06:20:21.907Z,17.50
2019-06-08T06:25:22.309Z,17.60
2019-06-08T06:27:52.113Z,17.80
2019-06-08T06:30:24.212Z,17.90
2019-06-08T06:32:53.726Z,17.90
2019-06-08T06:35:24.919Z,17.90
2019-06-08T06:37:54.792Z,17.90
2019-06-08T06:40:24.682Z,17.80
2019-06-08T06:42:54.589Z,17.80
2019-06-08T06:45:24.282Z,17.60
2019-06-08T06:47:53.855Z,17.50
2019-06-08T06:50:23.438Z,17.40
2019-06-08T06:52:53.046Z,17.40
2019-06-08T06:55:25.390Z,17.40
2019-06-08T06:57:54.029Z,17.20
2019-06-08T07:00:43.243Z,17.20
2019-06-08T07:03:13.065Z,17.10
2019-06-08T07:05:43.715Z,17.10
2019-06-08T07:08:13.471Z,17.10
2019-06-08T07:10:44.509Z,17.10
2019-06-08T07:13:14.235Z,17.10
2019-06-08T07:15:44.822Z,17.10
2019-06-08T07:18:14.744Z,17.10
2019-06-08T07:20:44.464Z,17.10
2019-06-08T07:23:14.016Z,17.10
2019-06-08T07:25:43.711Z,17.10
2019-06-08T07:28:13.314Z,17.00
2019-06-08T07:30:43.121Z,17.00
2019-06-08T07:33:24.795Z,17.10
2019-06-08T07:35:55.331Z,17.00
2019-06-08T07:38:24.978Z,17.10
2019-06-08T07:40:58.443Z,17.10
2019-06-08T07:43:25.898Z,17.10
2019-06-08T07:45:56.276Z,17.20
2019-06-08T07:48:25.953Z,17.30
2019-06-08T07:50:56.412Z,17.40
2019-06-08T07:53:26.263Z,17.40
2019-06-08T07:55:56.270Z,17.50
2019-06-08T07:58:25.993Z,17.60
2019-06-08T08:01:07.682Z,17.80
2019-06-08T08:03:32.145Z,18.30
2019-06-08T08:06:02.453Z,18.70
2019-06-08T08:08:52.519Z,18.70
2019-06-08T08:11:22.373Z,19.10
2019-06-08T08:13:54.968Z,19.00
2019-06-08T08:16:24.947Z,19.00
2019-06-08T08:18:55.575Z,19.00
2019-06-08T08:21:28.794Z,18.70
2019-06-08T08:23:59.648Z,18.70
2019-06-08T08:26:30.451Z,18.60
2019-06-08T08:29:02.783Z,18.50
2019-06-08T08:31:30.871Z,18.50
2019-06-08T08:34:05.710Z,18.30
2019-06-08T08:36:33.341Z,18.30
2019-06-08T08:39:03.279Z,18.20
2019-06-08T08:41:56.321Z,18.20
2019-06-08T08:44:23.555Z,18.10
2019-06-08T08:46:54.751Z,18.20
2019-06-08T08:49:24.871Z,18.30
2019-06-08T08:51:54.598Z,18.40
2019-06-08T08:54:24.258Z,18.50
2019-06-08T08:56:56.673Z,18.70
2019-06-08T09:02:20.550Z,18.90
2019-06-08T09:04:47.725Z,18.80
2019-06-08T09:07:18.349Z,18.80
2019-06-08T09:09:48.339Z,18.70
2019-06-08T09:12:18.428Z,18.70
2019-06-08T09:14:48.313Z,18.80
2019-06-08T09:17:18.221Z,18.90
2019-06-08T09:19:48.189Z,19.00
2019-06-08T09:22:18.768Z,19.10
2019-06-08T09:24:48.700Z,19.20
2019-06-08T09:27:18.696Z,19.30
2019-06-08T09:29:48.448Z,19.40
2019-06-08T09:32:18.208Z,19.50
2019-06-08T09:34:48.327Z,19.90
2019-06-08T09:37:18.619Z,20.00
2019-06-08T09:39:48.442Z,20.40
2019-06-08T09:42:21.206Z,20.50
2019-06-08T09:44:49.639Z,20.40
2019-06-08T09:47:19.326Z,20.40
2019-06-08T09:49:49.063Z,20.00
2019-06-08T09:52:21.473Z,19.90
2019-06-08T09:54:49.917Z,20.20
2019-06-08T09:57:19.745Z,20.80
2019-06-08T09:59:49.471Z,21.10
2019-06-08T10:02:19.201Z,21.40
2019-06-08T10:04:49.213Z,21.60
2019-06-08T10:07:19.031Z,21.60
2019-06-08T10:09:50.189Z,21.60
2019-06-08T10:12:19.907Z,21.70
2019-06-08T10:14:49.619Z,22.10
2019-06-08T10:17:20.980Z,22.50
2019-06-08T10:19:50.880Z,22.60
2019-06-08T10:22:20.815Z,22.60
2019-06-08T10:24:50.433Z,22.30
2019-06-08T10:27:20.108Z,22.20
2019-06-08T10:29:49.885Z,21.70
2019-06-08T10:34:50.428Z,21.30
2019-06-08T10:37:20.037Z,21.10
2019-06-08T10:40:09.496Z,20.80
2019-06-08T10:42:40.224Z,20.60
2019-06-08T10:45:14.370Z,20.30
2019-06-08T10:47:41.954Z,20.20
2019-06-08T10:50:15.359Z,20.10
2019-06-08T10:52:59.406Z,20.00
2019-06-08T10:55:28.224Z,19.80
2019-06-08T10:57:58.095Z,19.90
2019-06-08T11:00:28.308Z,19.70
2019-06-08T11:03:01.329Z,19.60
2019-06-08T11:05:29.473Z,19.50
2019-06-08T11:08:00.598Z,19.40
2019-06-08T11:10:30.543Z,19.30
2019-06-08T11:13:05.172Z,19.50
2019-06-08T11:15:31.719Z,20.00
2019-06-08T11:18:03.516Z,20.40
2019-06-08T11:20:32.947Z,21.00
2019-06-08T11:23:03.998Z,21.20
2019-06-08T11:25:37.535Z,21.40
2019-06-08T11:28:11.832Z,21.60
2019-06-08T11:30:38.859Z,21.70
2019-06-08T11:33:09.407Z,21.70
2019-06-08T11:35:39.724Z,22.00
2019-06-08T11:38:12.390Z,22.20
2019-06-08T11:40:40.592Z,22.50
2019-06-08T11:43:10.658Z,22.70
2019-06-08T11:45:40.332Z,22.70
2019-06-08T11:48:10.944Z,22.50
2019-06-08T11:50:43.597Z,22.20
2019-06-08T11:53:14.808Z,22.10
2019-06-08T11:55:44.584Z,21.60
2019-06-08T11:58:14.817Z,21.40
2019-06-08T12:01:04.646Z,21.10
2019-06-08T12:03:33.605Z,21.50
2019-06-08T12:06:04.249Z,22.50
2019-06-08T12:08:33.844Z,23.50
2019-06-08T12:11:04.272Z,23.80
2019-06-08T12:13:35.074Z,23.50
2019-06-08T12:16:05.009Z,23.20
2019-06-08T12:18:34.722Z,22.90
2019-06-08T12:21:05.590Z,22.80
2019-06-08T12:23:35.187Z,22.80
2019-06-08T12:26:06.096Z,23.10
2019-06-08T12:28:38.054Z,23.10
2019-06-08T12:31:13.194Z,23.00
2019-06-08T12:33:39.094Z,22.90
2019-06-08T12:36:12.019Z,22.50
2019-06-08T12:38:40.303Z,22.10
2019-06-08T12:41:12.311Z,21.70
2019-06-08T12:43:41.844Z,21.30
2019-06-08T12:46:13.045Z,20.70
2019-06-08T12:48:42.968Z,20.40
2019-06-08T12:51:13.675Z,20.40
2019-06-08T12:53:43.836Z,20.20
2019-06-08T12:56:14.745Z,20.30
2019-06-08T12:58:44.583Z,20.40
2019-06-08T13:01:14.612Z,20.40
2019-06-08T13:03:44.169Z,20.40
2019-06-08T13:06:14.079Z,20.50
2019-06-08T13:08:43.719Z,20.70
2019-06-08T13:11:13.949Z,20.80
2019-06-08T13:13:43.724Z,21.10
2019-06-08T13:16:14.587Z,21.50
2019-06-08T13:18:44.245Z,23.30
2019-06-08T13:21:25.492Z,26.70
2019-06-08T13:23:45.222Z,29.80
2019-06-08T13:26:20.122Z,33.20
2019-06-08T13:28:45.993Z,35.60
2019-06-08T13:31:18.193Z,37.60
2019-06-08T13:33:48.585Z,38.50
2019-06-08T13:36:22.126Z,40.10
2019-06-08T13:38:49.463Z,40.70
2019-06-08T13:41:20.269Z,39.50
2019-06-08T13:43:50.376Z,39.20
2019-06-08T13:46:22.317Z,39.20
2019-06-08T13:48:51.121Z,37.30
2019-06-08T13:51:22.528Z,36.00
2019-06-08T13:53:52.161Z,37.30
2019-06-08T13:56:22.707Z,37.00
2019-06-08T13:58:53.059Z,36.90
2019-06-08T14:01:23.672Z,36.50
2019-06-08T14:03:53.983Z,38.40
2019-06-08T14:06:24.895Z,33.80
2019-06-08T14:08:54.806Z,32.40
2019-06-08T14:11:25.297Z,33.20
2019-06-08T14:14:00.763Z,32.20
2019-06-08T14:16:29.677Z,30.30
2019-06-08T14:18:58.723Z,29.00
2019-06-08T14:21:37.384Z,27.90
2019-06-08T14:23:59.688Z,27.60
2019-06-08T14:26:29.673Z,27.30
2019-06-08T14:29:01.583Z,27.20
2019-06-08T14:31:32.173Z,27.60
2019-06-08T14:34:02.255Z,27.80
2019-06-08T14:36:32.037Z,27.50
2019-06-08T14:39:02.539Z,27.20
2019-06-08T14:41:32.487Z,26.70
2019-06-08T14:44:02.184Z,27.40
2019-06-08T14:46:31.866Z,28.30
2019-06-08T14:49:01.471Z,28.20
2019-06-08T14:51:48.867Z,27.90
2019-06-08T14:54:24.393Z,29.20
2019-06-08T14:56:51.238Z,29.10
2019-06-08T14:59:22.029Z,28.30
2019-06-08T15:01:52.310Z,28.40
2019-06-08T15:04:23.852Z,32.60
2019-06-08T15:06:53.278Z,32.70
2019-06-08T15:09:23.477Z,32.80
2019-06-08T15:11:53.134Z,33.30
2019-06-08T15:14:23.669Z,31.30
2019-06-08T15:16:53.274Z,31.10
2019-06-08T15:19:22.896Z,31.70
2019-06-08T15:21:52.518Z,33.20
2019-06-08T15:24:22.661Z,30.50
2019-06-08T15:26:52.239Z,30.50
2019-06-08T15:29:22.842Z,29.90
2019-06-08T15:31:52.604Z,30.60
2019-06-08T15:34:23.208Z,31.90
2019-06-08T15:36:52.990Z,31.80
2019-06-08T15:39:23.470Z,30.60
2019-06-08T15:41:53.156Z,29.30
2019-06-08T15:44:23.396Z,27.40
2019-06-08T15:46:54.201Z,27.30
2019-06-08T15:49:24.142Z,26.80
2019-06-08T15:51:53.751Z,25.90
2019-06-08T15:54:24.623Z,24.70
2019-06-08T15:56:54.526Z,24.30
2019-06-08T15:59:24.858Z,24.30
2019-06-08T16:01:54.521Z,23.90
2019-06-08T16:04:25.410Z,23.20
2019-06-08T16:06:55.495Z,23.20
2019-06-08T16:09:25.993Z,23.10
2019-06-08T16:11:55.841Z,24.10
2019-06-08T16:14:26.593Z,24.20
2019-06-08T16:16:56.303Z,25.10
2019-06-08T16:19:25.864Z,25.20
2019-06-08T16:21:55.770Z,25.00
2019-06-08T16:26:56.179Z,28.00
2019-06-08T16:29:26.771Z,27.30
2019-06-08T16:34:27.278Z,25.30
2019-06-08T16:36:57.596Z,24.70
2019-06-08T16:39:28.563Z,24.60
2019-06-08T16:41:58.303Z,27.50
2019-06-08T16:44:28.138Z,31.50
2019-06-08T16:46:57.827Z,35.10
2019-06-08T16:49:27.488Z,36.50
2019-06-08T16:51:57.249Z,37.70
2019-06-08T16:54:26.865Z,39.80
2019-06-08T16:57:09.575Z,41.30
2019-06-08T16:59:28.193Z,42.80
2019-06-08T17:01:57.780Z,40.20
2019-06-08T17:04:28.615Z,36.20
2019-06-08T17:06:58.521Z,32.80
2019-06-08T17:09:28.558Z,30.40
2019-06-08T17:11:59.166Z,28.20
2019-06-08T17:14:29.983Z,26.70
2019-06-08T17:21:59.878Z,24.10
2019-06-08T17:29:29.000Z,22.80
2019-06-08T17:31:58.682Z,22.60
2019-06-08T17:36:57.500Z,28.30
2019-06-08T17:39:29.381Z,32.10
2019-06-08T17:41:58.351Z,34.40
2019-06-08T17:44:27.942Z,35.60
2019-06-08T17:46:57.794Z,34.40
2019-06-08T17:49:27.328Z,31.90
2019-06-08T17:51:57.013Z,30.70
2019-06-08T17:54:26.633Z,32.30
2019-06-08T17:59:25.406Z,31.10
2019-06-08T18:01:55.240Z,29.80
2019-06-08T18:04:24.745Z,28.90
2019-06-08T18:06:54.606Z,28.00
2019-06-08T18:11:53.519Z,30.90
2019-06-08T18:14:23.177Z,33.10
2019-06-08T18:16:52.989Z,33.90
2019-06-08T18:19:28.721Z,34.00
2019-06-08T18:22:04.748Z,33.10
2019-06-08T18:24:30.097Z,31.00
2019-06-08T18:26:59.701Z,28.60
2019-06-08T18:29:29.248Z,26.70
2019-06-08T18:31:59.224Z,25.40
2019-06-08T18:34:29.013Z,24.00
2019-06-08T18:36:58.798Z,23.10
2019-06-08T18:39:29.353Z,22.20
2019-06-08T18:44:29.327Z,21.20
2019-06-08T18:46:58.878Z,21.20
2019-06-08T18:49:29.112Z,21.20
2019-06-08T18:51:58.916Z,21.20
2019-06-08T18:56:57.935Z,21.80
2019-06-08T19:04:30.686Z,22.50
2019-06-08T19:07:01.782Z,23.00
2019-06-08T19:09:32.383Z,23.00
2019-06-08T19:12:01.988Z,22.40
2019-06-08T19:14:31.504Z,21.70
2019-06-08T19:17:01.069Z,21.30
2019-06-08T19:19:31.533Z,20.90
2019-06-08T19:22:01.319Z,20.60
2019-06-08T19:24:30.944Z,20.40
2019-06-08T19:27:00.626Z,20.30
2019-06-08T19:29:30.244Z,20.00
2019-06-08T19:32:00.745Z,20.00
2019-06-08T19:34:33.272Z,19.60
2019-06-08T19:37:01.742Z,19.30
2019-06-08T19:39:31.352Z,19.30
2019-06-08T19:42:00.875Z,18.90
2019-06-08T19:44:30.669Z,18.70
2019-06-08T19:47:00.361Z,18.70
2019-06-08T19:49:30.090Z,18.50
2019-06-08T19:51:59.792Z,18.40
2019-06-08T19:54:29.325Z,18.20
2019-06-08T19:56:59.006Z,18.10
2019-06-08T19:59:28.536Z,18.00
2019-06-08T20:01:59.884Z,17.90
2019-06-08T20:04:29.361Z,17.80
2019-06-08T20:07:00.604Z,17.90
2019-06-08T20:09:30.298Z,17.80
2019-06-08T20:12:00.294Z,17.70
2019-06-08T20:14:30.053Z,17.80
2019-06-08T20:16:59.807Z,17.70
2019-06-08T20:19:29.435Z,17.70
2019-06-08T20:21:59.048Z,17.60
2019-06-08T20:24:28.643Z,17.50
2019-06-08T20:29:28.288Z,17.50
2019-06-08T20:31:58.587Z,17.50
2019-06-08T20:34:28.260Z,17.50
2019-06-08T20:37:01.161Z,17.60
2019-06-08T20:39:29.060Z,17.50
2019-06-08T20:41:58.783Z,17.40
2019-06-08T20:44:30.215Z,17.30
2019-06-08T20:46:59.781Z,17.30
2019-06-08T20:49:29.340Z,20.90
2019-06-08T20:52:00.408Z,17.30
2019-06-08T20:54:30.234Z,17.20
2019-06-08T20:56:59.816Z,17.20
2019-06-08T20:59:33.855Z,17.20
2019-06-08T21:02:00.843Z,17.20
2019-06-08T21:04:30.400Z,17.30
2019-06-08T21:06:59.922Z,17.20
2019-06-08T21:09:29.485Z,17.20
2019-06-08T21:11:59.113Z,17.20
2019-06-08T21:14:28.647Z,17.30
2019-06-08T21:16:58.714Z,17.00
2019-06-08T21:19:28.461Z,17.10
2019-06-08T21:21:59.208Z,17.10
2019-06-08T21:24:29.206Z,17.10
2019-06-08T21:27:02.298Z,17.10
2019-06-08T21:29:47.051Z,17.10
2019-06-08T21:32:03.253Z,17.10
2019-06-08T21:34:32.924Z,17.10
2019-06-08T21:37:02.739Z,17.10
2019-06-08T21:39:32.311Z,17.00
2019-06-08T21:42:03.382Z,17.00
2019-06-08T21:44:33.236Z,17.00
2019-06-08T21:47:02.847Z,16.90
2019-06-08T21:49:32.379Z,16.90
2019-06-08T21:52:02.148Z,16.80
2019-06-08T21:54:31.665Z,16.80
2019-06-08T21:57:01.341Z,16.70
2019-06-08T21:59:31.044Z,16.80
2019-06-08T22:02:03.894Z,16.80
2019-06-08T22:04:32.234Z,16.70
2019-06-08T22:07:03.260Z,16.70
2019-06-08T22:09:32.986Z,16.70
2019-06-08T22:12:03.310Z,16.70
2019-06-08T22:14:32.944Z,16.70
2019-06-08T22:17:03.251Z,16.80
2019-06-08T22:19:32.915Z,16.80
2019-06-08T22:22:03.959Z,16.80
2019-06-08T22:24:33.584Z,16.70
2019-06-08T22:27:03.694Z,16.80
2019-06-08T22:29:33.414Z,16.80
2019-06-08T22:34:33.383Z,16.80
2019-06-08T22:37:02.994Z,16.90
2019-06-08T22:39:32.587Z,16.90
2019-06-08T22:42:02.203Z,16.90
2019-06-08T22:44:31.715Z,16.90
2019-06-08T22:47:03.027Z,16.90
2019-06-08T22:49:32.676Z,16.90
2019-06-08T22:52:03.032Z,16.90
2019-06-08T22:54:33.604Z,17.00
2019-06-08T22:57:04.757Z,17.10
2019-06-08T22:59:34.451Z,17.20
2019-06-08T23:02:05.783Z,17.30
2019-06-08T23:04:35.347Z,17.40
2019-06-08T23:07:07.000Z,17.30
2019-06-08T23:09:37.336Z,17.40
2019-06-08T23:12:09.347Z,17.40
2019-06-08T23:14:38.193Z,17.70
2019-06-08T23:17:08.610Z,17.70
2019-06-08T23:19:38.236Z,17.90
2019-06-08T23:24:38.333Z,18.00
2019-06-08T23:27:08.347Z,18.00
2019-06-08T23:29:38.260Z,18.00
2019-06-08T23:32:11.414Z,18.00
2019-06-08T23:34:39.247Z,17.90
2019-06-08T23:37:12.655Z,17.90
2019-06-08T23:39:40.054Z,17.80
2019-06-08T23:42:09.846Z,17.80
2019-06-08T23:44:39.438Z,17.70
2019-06-08T23:47:09.057Z,17.70
2019-06-08T23:49:38.644Z,17.70
2019-06-08T23:52:11.299Z,17.70
2019-06-08T23:54:39.390Z,17.50
2019-06-08T23:57:10.988Z,17.50
2019-06-08T23:59:40.141Z,17.40
